Weather History for KEZS - August, 2014

Change the Weather History Date:

Thursday, August 14, 2014

  Actual Average (KGRB) Record (KGRB)
Temperature  
Mean Temperature 60 °F 68 °F  
Max Temperature 74 °F 78 °F 96 °F (1965)
Min Temperature 46 °F 58 °F 40 °F (1964)
Degree Days  
Heating Degree Days 5 1  
Month to date heating degree days 14  
Since 1 June heating degree days 129  
Since 1 July heating degree days 37  
Cooling Degree Days 0 4  
Month to date cooling degree days 57  
Year to date cooling degree days 308  
Since 1 June cooling degree days 290  
Growing Degree Days 10 (Base 50)    
Moisture  
Dew Point 46 °F    
Average Humidity 61    
Maximum Humidity 92    
Minimum Humidity 31    
Precipitation  
Precipitation 0.00 in 0.11 in 1.00 in (1986)
Month to date precipitation 1.59  
Year to date precipitation 18.62  
Snow  
Snow 0.00 in 0.00 in 0.00 in ()
Month to date snowfall 0.0  
Since 1 June snowfall 0.0  
Since 1 July snowfall 0.0  
Snow Depth -    
Sea Level Pressure  
Sea Level Pressure 30.11 in    
Wind  
Wind Speed 4 mph (NW)    
Max Wind Speed 9 mph    
Max Gust Speed -    
Visibility 10 miles    
Events      
T = Trace of Precipitation, MM = Missing Value Source: NWS Daily Summary

Daily Weather History Graph

Daily Weather History Graph

Search for Another Location

Airport or City:

Trip Planner

Search our weather history database for the weather conditions in past years. The results will help you decide how hot, cold, wet, or windy it might be!

Date:

Astronomy

Aug. 14, 2014 Rise Set
Actual Time 5:55 AM CDT 8:01 PM CDT
Civil Twilight 5:23 AM CDT 8:33 PM CDT
Nautical Twilight 4:43 AM CDT 9:12 PM CDT
Astronomical Twilight 4:00 AM CDT 9:55 PM CDT
Moon 10:09 PM CDT (8/14) 10:45 AM CDT (8/14)
Length of Visible Light 15h 10m
Length of Day
14h 06m
Waning Gibbous, 79% of the Moon is Illuminated
Aug 14
Waning Gibbous
Aug 17
Last Quarter
Aug 25
New
Sep 2
First Quarter
Sep 8
Full

Hourly Weather History & Observations

Time (CDT) Temp. Dew Point Humidity Pressure Visibility Wind Dir Wind Speed Gust Speed Precip Events Conditions
12:15 AM 60.1 °F 53.1 °F 78% 30.12 in 10.0 mi NNE 9.2 mph - N/A   Clear
12:35 AM 59.9 °F 50.2 °F 70% 30.13 in 10.0 mi NNE 8.1 mph - N/A   Clear
12:55 AM 58.5 °F 49.6 °F 72% 30.13 in 10.0 mi North 3.5 mph - N/A   Clear
1:15 AM 56.3 °F 49.5 °F 78% 30.13 in 10.0 mi Calm Calm - N/A   Clear
1:35 AM 55.4 °F 49.5 °F 80% 30.13 in 10.0 mi North 4.6 mph - N/A   Clear
1:55 AM 54.1 °F 48.7 °F 82% 30.13 in 10.0 mi NNW 5.8 mph - N/A   Clear
2:15 AM 53.6 °F 47.8 °F 81% 30.13 in 10.0 mi NNW 3.5 mph - N/A   Clear
2:35 AM 52.0 °F 47.1 °F 83% 30.13 in 10.0 mi NNW 3.5 mph - N/A   Clear
2:55 AM 51.8 °F 46.6 °F 82% 30.13 in 10.0 mi Calm Calm - N/A   Clear
3:15 AM 51.6 °F 47.1 °F 85% 30.13 in 10.0 mi Calm Calm - N/A   Clear
3:35 AM 51.3 °F 46.6 °F 84% 30.14 in 10.0 mi Calm Calm - N/A   Clear
3:55 AM 49.8 °F 46.4 °F 88% 30.14 in 10.0 mi WNW 3.5 mph - N/A   Clear
4:15 AM 50.0 °F 46.6 °F 88% 30.13 in 10.0 mi Calm Calm - N/A   Clear
4:35 AM 49.1 °F 46.0 °F 89% 30.13 in 10.0 mi West 3.5 mph - N/A   Clear
4:55 AM 48.9 °F 46.0 °F 90% 30.14 in 7.0 mi Calm Calm - N/A   Clear
5:15 AM 48.9 °F 46.0 °F 90% 30.14 in 7.0 mi Calm Calm - N/A   Clear
5:35 AM 48.6 °F 45.7 °F 90% 30.15 in 10.0 mi Calm Calm - N/A   Clear
5:55 AM 47.7 °F 45.0 °F 90% 30.14 in 10.0 mi Calm Calm - N/A   Clear
6:15 AM 46.8 °F 44.1 °F 90% 30.15 in 10.0 mi Calm Calm - N/A   Clear
6:35 AM 47.1 °F 44.8 °F 92% 30.15 in 10.0 mi Calm Calm - N/A   Clear
6:55 AM 48.6 °F 46.0 °F 91% 30.16 in 10.0 mi Calm Calm - N/A   Clear
7:15 AM 50.2 °F 46.6 °F 87% 30.16 in 10.0 mi Calm Calm - N/A   Clear
7:35 AM 51.3 °F 46.4 °F 83% 30.16 in 10.0 mi Calm Calm - N/A   Clear
7:55 AM 52.9 °F 47.1 °F 81% 30.16 in 10.0 mi Calm Calm - N/A   Clear
8:15 AM 55.2 °F 47.7 °F 76% 30.16 in 10.0 mi Calm Calm - N/A   Clear
8:35 AM 57.4 °F 47.8 °F 70% 30.16 in 10.0 mi NNW 3.5 mph - N/A   Clear
8:55 AM 58.8 °F 47.7 °F 66% 30.16 in 10.0 mi NNE 3.5 mph - N/A   Clear
9:15 AM 60.6 °F 47.8 °F 63% 30.16 in 10.0 mi NNE 3.5 mph - N/A   Clear
9:35 AM 61.5 °F 47.5 °F 60% 30.16 in 10.0 mi Calm Calm - N/A   Clear
9:55 AM 63.0 °F 46.6 °F 55% 30.16 in 10.0 mi NE 3.5 mph - N/A   Clear
10:15 AM 64.6 °F 45.7 °F 50% 30.16 in 10.0 mi NNE 4.6 mph - N/A   Clear
10:35 AM 65.8 °F 46.4 °F 49% 30.16 in 10.0 mi NNW 5.8 mph - N/A   Clear
10:55 AM 66.0 °F 43.2 °F 43% 30.15 in 10.0 mi North 4.6 mph - N/A   Clear
11:15 AM 66.6 °F 43.3 °F 43% 30.15 in 10.0 mi North 3.5 mph - N/A   Scattered Clouds
11:35 AM 68.0 °F 44.1 °F 42% 30.14 in 10.0 mi WNW 4.6 mph - N/A   Clear
11:55 AM 68.7 °F 42.8 °F 39% 30.14 in 10.0 mi North 6.9 mph - N/A   Clear
12:15 PM 69.4 °F 44.4 °F 41% 30.13 in 10.0 mi NW 4.6 mph - N/A   Clear
12:35 PM 69.1 °F 43.7 °F 40% 30.12 in 10.0 mi Calm Calm - N/A   Clear
12:55 PM 70.0 °F 41.2 °F 35% 30.12 in 10.0 mi NNW 9.2 mph - N/A   Clear
1:15 PM 71.1 °F 44.1 °F 38% 30.11 in 10.0 mi NW 9.2 mph - N/A   Clear
1:35 PM 71.1 °F 42.8 °F 36% 30.11 in 10.0 mi Calm Calm - N/A   Clear
1:55 PM 71.4 °F 41.5 °F 34% 30.11 in 10.0 mi Calm Calm - N/A   Clear
2:15 PM 71.8 °F 41.7 °F 34% 30.10 in 10.0 mi North 4.6 mph - N/A   Clear
2:35 PM 72.3 °F 42.1 °F 34% 30.09 in 10.0 mi North 8.1 mph - N/A   Clear
2:55 PM 72.1 °F 40.1 °F 31% 30.09 in 10.0 mi Calm Calm - N/A   Clear
3:15 PM 73.6 °F 42.6 °F 33% 30.09 in 10.0 mi Calm Calm - N/A   Clear
3:35 PM 73.0 °F 41.0 °F 31% 30.08 in 10.0 mi Calm Calm - N/A   Clear
3:55 PM 73.2 °F 42.4 °F 33% 30.07 in 10.0 mi NNW 6.9 mph - N/A   Clear
4:15 PM 73.4 °F 42.1 °F 32% 30.07 in 10.0 mi Calm Calm - N/A   Clear
4:35 PM 74.3 °F 42.8 °F 32% 30.07 in 10.0 mi North 6.9 mph - N/A   Clear
4:55 PM 73.4 °F 41.9 °F 32% 30.06 in 10.0 mi Calm Calm - N/A   Clear
5:15 PM 74.1 °F 41.9 °F 31% 30.06 in 10.0 mi NNW 3.5 mph - N/A   Clear
5:35 PM 73.4 °F 41.9 °F 32% 30.06 in 10.0 mi NW 4.6 mph - N/A   Clear
5:55 PM 73.4 °F 42.8 °F 33% 30.05 in 10.0 mi West 4.6 mph - N/A   Clear
6:15 PM 71.4 °F 43.3 °F 36% 30.05 in 10.0 mi NW 5.8 mph - N/A   Clear
6:35 PM 70.5 °F 44.4 °F 39% 30.05 in 10.0 mi Calm Calm - N/A   Clear
6:55 PM 68.9 °F 46.6 °F 45% 30.04 in 10.0 mi West 3.5 mph - N/A   Clear
7:15 PM 67.1 °F 47.7 °F 50% 30.04 in 10.0 mi West 4.6 mph - N/A   Clear
7:35 PM 67.5 °F 48.0 °F 50% 30.04 in 10.0 mi West 5.8 mph - N/A   Clear
7:55 PM 66.2 °F 49.3 °F 54% 30.04 in 10.0 mi West 4.6 mph - N/A   Clear
8:15 PM 64.9 °F 49.6 °F 58% 30.04 in 10.0 mi West 4.6 mph - N/A   Clear
8:35 PM 63.9 °F 50.0 °F 61% 30.04 in 10.0 mi West 4.6 mph - N/A   Clear
8:55 PM 62.6 °F 50.5 °F 65% 30.04 in 10.0 mi West 4.6 mph - N/A   Clear
9:15 PM 62.1 °F 50.5 °F 66% 30.05 in 10.0 mi West 4.6 mph - N/A   Clear
9:35 PM 61.7 °F 50.9 °F 68% 30.04 in 10.0 mi West 3.5 mph - N/A   Clear
9:55 PM 60.3 °F 50.9 °F 71% 30.04 in 10.0 mi West 4.6 mph - N/A   Clear
10:15 PM 59.5 °F 51.1 °F 74% 30.04 in 10.0 mi West 4.6 mph - N/A   Clear
10:35 PM 59.4 °F 50.9 °F 74% 30.04 in 10.0 mi West 3.5 mph - N/A   Clear
10:55 PM 58.3 °F 50.9 °F 76% 30.05 in 10.0 mi Calm Calm - N/A   Clear
11:15 PM 57.6 °F 51.1 °F 79% 30.05 in 10.0 mi West 4.6 mph - N/A   Clear
11:35 PM 55.6 °F 50.2 °F 82% 30.05 in 10.0 mi Calm Calm - N/A   Clear
11:55 PM 52.5 °F 48.2 °F 85% 30.05 in 10.0 mi Calm Calm - N/A   Clear